createdAt,value
2018-04-04T00:01:13.818Z,52.67
2018-04-04T00:03:39.769Z,52.75
2018-04-04T00:06:05.777Z,52.34
2018-04-04T00:08:31.723Z,52.28
2018-04-04T00:10:57.678Z,52.02
2018-04-04T00:13:23.647Z,51.89
2018-04-04T00:15:49.598Z,51.98
2018-04-04T00:18:15.541Z,52.20
2018-04-04T00:20:41.523Z,52.24
2018-04-04T00:23:07.473Z,52.19
2018-04-04T00:25:33.413Z,52.24
2018-04-04T00:27:59.433Z,52.16
2018-04-04T00:30:25.375Z,52.09
2018-04-04T00:32:51.317Z,52.18
2018-04-04T00:35:17.302Z,52.30
2018-04-04T00:37:43.253Z,52.66
2018-04-04T00:40:09.214Z,52.42
2018-04-04T00:42:35.140Z,52.06
2018-04-04T00:45:01.086Z,52.16
2018-04-04T00:47:27.042Z,52.53
2018-04-04T00:49:53.010Z,52.48
2018-04-04T00:52:18.949Z,52.65
2018-04-04T00:54:44.897Z,52.96
2018-04-04T00:57:10.934Z,52.53
2018-04-04T00:59:36.885Z,52.74
2018-04-04T01:02:02.858Z,52.59
2018-04-04T01:04:28.799Z,52.57
2018-04-04T01:06:54.764Z,52.73
2018-04-04T01:09:20.709Z,52.60
2018-04-04T01:11:46.742Z,52.61
2018-04-04T01:14:12.685Z,52.52
2018-04-04T01:16:38.633Z,52.42
2018-04-04T01:19:04.593Z,52.70
2018-04-04T01:21:30.560Z,52.54
2018-04-04T01:23:56.496Z,52.70
2018-04-04T01:26:22.549Z,52.51
2018-04-04T01:28:48.488Z,52.68
2018-04-04T01:31:14.442Z,52.71
2018-04-04T01:33:40.406Z,52.55
2018-04-04T01:36:06.338Z,52.57
2018-04-04T01:38:32.298Z,52.66
2018-04-04T01:40:58.244Z,52.74
2018-04-04T01:43:24.191Z,52.60
2018-04-04T01:45:50.133Z,52.79
2018-04-04T01:48:16.077Z,52.50
2018-04-04T01:50:42.042Z,52.67
2018-04-04T01:53:07.986Z,52.56
2018-04-04T01:55:33.949Z,52.62
2018-04-04T01:57:59.911Z,52.61
2018-04-04T02:00:25.877Z,52.75
2018-04-04T02:02:51.833Z,52.74
2018-04-04T02:05:17.765Z,52.53
2018-04-04T02:07:43.741Z,52.79
2018-04-04T02:10:09.698Z,52.73
2018-04-04T02:12:35.637Z,52.58
2018-04-04T02:15:01.612Z,52.52
2018-04-04T02:17:27.554Z,52.63
2018-04-04T02:19:53.504Z,52.72
2018-04-04T02:22:19.496Z,52.61
2018-04-04T02:24:45.398Z,52.75
2018-04-04T02:27:11.337Z,52.77
2018-04-04T02:29:37.304Z,52.68
2018-04-04T02:32:03.239Z,52.57
2018-04-04T02:34:29.194Z,52.73
2018-04-04T02:36:55.196Z,52.90
2018-04-04T02:39:21.207Z,52.70
2018-04-04T02:41:47.141Z,52.78
2018-04-04T02:44:13.105Z,52.67
2018-04-04T02:46:39.044Z,52.60
2018-04-04T02:49:04.986Z,52.68
2018-04-04T02:51:30.958Z,52.72
2018-04-04T02:53:56.893Z,52.62
2018-04-04T02:56:22.834Z,52.55
2018-04-04T02:58:48.805Z,52.45
2018-04-04T03:01:14.758Z,52.72
2018-04-04T03:03:40.728Z,52.63
2018-04-04T03:06:06.669Z,52.62
2018-04-04T03:08:32.634Z,52.70
2018-04-04T03:10:58.581Z,52.65
2018-04-04T03:13:24.549Z,52.53
2018-04-04T03:15:50.490Z,52.48
2018-04-04T03:18:16.442Z,52.57
2018-04-04T03:20:42.387Z,52.51
2018-04-04T03:23:08.335Z,52.57
2018-04-04T03:25:34.284Z,52.65
2018-04-04T03:28:00.237Z,52.81
2018-04-04T03:30:26.191Z,52.49
2018-04-04T03:32:52.123Z,52.35
2018-04-04T03:35:18.081Z,51.91
2018-04-04T03:37:44.153Z,51.80
2018-04-04T03:40:10.092Z,51.65
2018-04-04T03:42:36.038Z,51.57
2018-04-04T03:45:01.988Z,51.64
2018-04-04T03:47:27.921Z,51.77
2018-04-04T03:49:53.876Z,51.83
2018-04-04T03:52:19.965Z,51.37
2018-04-04T03:54:45.926Z,51.52
2018-04-04T03:57:11.865Z,51.71
2018-04-04T03:59:37.863Z,51.71
2018-04-04T04:02:03.937Z,51.80
2018-04-04T04:04:29.885Z,51.92
2018-04-04T04:06:55.829Z,51.84
2018-04-04T04:09:21.778Z,51.89
2018-04-04T04:11:47.721Z,51.86
2018-04-04T04:14:13.684Z,52.03
2018-04-04T04:16:39.661Z,51.98
2018-04-04T04:19:05.617Z,52.13
2018-04-04T04:21:31.582Z,52.08
2018-04-04T04:23:57.545Z,52.18
2018-04-04T04:26:23.485Z,52.07
2018-04-04T04:28:49.441Z,52.07
2018-04-04T04:31:15.458Z,52.06
2018-04-04T04:33:41.408Z,52.12
2018-04-04T04:36:07.401Z,52.05
2018-04-04T04:38:33.341Z,52.12
2018-04-04T04:40:59.312Z,52.09
2018-04-04T04:43:25.248Z,52.03
2018-04-04T04:45:51.189Z,52.04
2018-04-04T04:48:17.125Z,52.00
2018-04-04T04:50:43.085Z,52.16
2018-04-04T04:53:09.053Z,52.04
2018-04-04T04:55:34.986Z,51.88
2018-04-04T04:58:00.953Z,52.10
2018-04-04T05:00:26.900Z,52.20
2018-04-04T05:02:52.832Z,52.25
2018-04-04T05:05:18.790Z,52.17
2018-04-04T05:07:44.733Z,52.25
2018-04-04T05:10:10.704Z,52.01
2018-04-04T05:12:36.651Z,52.17
2018-04-04T05:15:02.590Z,51.88
2018-04-04T05:17:28.554Z,51.99
2018-04-04T05:19:54.507Z,51.95
2018-04-04T05:22:20.452Z,52.09
2018-04-04T05:24:46.411Z,51.95
2018-04-04T05:27:12.385Z,52.01
2018-04-04T05:29:38.319Z,52.11
2018-04-04T05:32:04.349Z,51.99
2018-04-04T05:34:30.289Z,52.16
2018-04-04T05:36:56.229Z,52.18
2018-04-04T05:39:22.201Z,51.96
2018-04-04T05:41:48.136Z,52.17
2018-04-04T05:44:14.075Z,52.38
2018-04-04T05:46:40.018Z,52.34
2018-04-04T05:49:05.987Z,52.35
2018-04-04T05:51:31.924Z,52.44
2018-04-04T05:53:57.885Z,52.26
2018-04-04T05:56:23.833Z,52.36
2018-04-04T05:58:49.782Z,52.50
2018-04-04T06:01:15.722Z,52.27
2018-04-04T06:03:41.662Z,52.37
2018-04-04T06:06:07.606Z,52.42
2018-04-04T06:08:33.549Z,52.25
2018-04-04T06:10:59.488Z,52.24
2018-04-04T06:13:25.571Z,52.05
2018-04-04T06:15:51.541Z,52.83
2018-04-04T06:18:17.482Z,52.30
2018-04-04T06:20:43.438Z,52.20
2018-04-04T06:23:09.382Z,52.00
2018-04-04T06:25:35.330Z,52.04
2018-04-04T06:28:01.289Z,52.19
2018-04-04T06:30:27.234Z,52.21
2018-04-04T06:32:53.198Z,52.12
2018-04-04T06:35:19.184Z,52.49
2018-04-04T06:37:45.189Z,52.53
2018-04-04T06:40:11.146Z,52.48
2018-04-04T06:42:37.099Z,52.47
2018-04-04T06:45:03.045Z,52.47
2018-04-04T06:47:29.013Z,52.44
2018-04-04T06:49:54.981Z,52.52
2018-04-04T06:52:20.952Z,52.48
2018-04-04T06:54:46.923Z,52.47
2018-04-04T06:57:12.902Z,52.54
2018-04-04T06:59:38.858Z,52.42
2018-04-04T07:02:04.859Z,52.24
2018-04-04T07:04:30.801Z,52.30
2018-04-04T07:06:56.758Z,52.25
2018-04-04T07:09:22.722Z,52.42
2018-04-04T07:11:48.662Z,52.47
2018-04-04T07:14:14.617Z,52.40
2018-04-04T07:16:40.553Z,52.50
2018-04-04T07:19:06.550Z,52.45
2018-04-04T07:21:32.508Z,52.54
2018-04-04T07:23:58.528Z,52.88
2018-04-04T07:26:24.545Z,52.86
2018-04-04T07:28:50.578Z,52.76
2018-04-04T07:31:16.593Z,52.85
2018-04-04T07:33:42.541Z,52.72
2018-04-04T07:36:08.542Z,52.56
2018-04-04T07:38:34.482Z,52.48
2018-04-04T07:41:00.507Z,52.44
2018-04-04T07:43:26.583Z,52.37
2018-04-04T07:45:52.488Z,52.38
2018-04-04T07:48:18.469Z,52.43
2018-04-04T07:50:44.417Z,52.41
2018-04-04T07:53:10.360Z,52.35
2018-04-04T07:55:36.326Z,52.24
2018-04-04T07:58:02.266Z,52.86
2018-04-04T08:00:28.221Z,52.57
2018-04-04T08:02:54.165Z,52.45
2018-04-04T08:05:20.130Z,52.58
2018-04-04T08:07:46.066Z,52.68
2018-04-04T08:10:12.130Z,52.68
2018-04-04T08:12:38.070Z,52.69
2018-04-04T08:15:04.013Z,52.78
2018-04-04T08:17:30.097Z,52.85
2018-04-04T08:19:56.088Z,52.95
2018-04-04T08:22:22.010Z,52.85
2018-04-04T08:24:48.025Z,53.08
2018-04-04T08:27:13.965Z,53.07
2018-04-04T08:29:39.925Z,53.09
2018-04-04T08:32:05.922Z,53.05
2018-04-04T08:34:31.911Z,53.08
2018-04-04T08:36:57.844Z,53.25
2018-04-04T08:39:23.882Z,53.00
2018-04-04T08:41:49.826Z,53.21
2018-04-04T08:44:15.835Z,53.46
2018-04-04T08:46:41.785Z,53.53
2018-04-04T08:49:07.743Z,53.33
2018-04-04T08:51:33.707Z,53.46
2018-04-04T08:53:59.672Z,53.44
2018-04-04T08:56:25.653Z,53.44
2018-04-04T08:58:51.600Z,53.34
2018-04-04T09:01:17.565Z,53.40
2018-04-04T09:03:43.528Z,53.39
2018-04-04T09:06:09.473Z,53.21
2018-04-04T09:08:35.432Z,53.28
2018-04-04T09:11:01.451Z,53.29
2018-04-04T09:13:27.383Z,53.48
2018-04-04T09:15:53.321Z,53.46
2018-04-04T09:18:19.266Z,54.40
2018-04-04T09:20:45.202Z,53.37
2018-04-04T09:23:11.171Z,53.33
2018-04-04T09:25:37.113Z,53.21
2018-04-04T09:28:03.069Z,52.99
2018-04-04T09:30:29.012Z,53.10
2018-04-04T09:32:54.980Z,53.13
2018-04-04T09:35:20.909Z,52.90
2018-04-04T09:37:46.876Z,53.06
2018-04-04T09:40:12.834Z,53.11
2018-04-04T09:42:38.774Z,53.00
2018-04-04T09:45:04.733Z,53.07
2018-04-04T09:47:30.698Z,53.10
2018-04-04T09:49:56.665Z,53.01
2018-04-04T09:52:22.623Z,53.10
2018-04-04T09:54:48.565Z,53.10
2018-04-04T09:57:14.527Z,53.19
2018-04-04T09:59:40.466Z,53.26
2018-04-04T10:02:06.409Z,53.40
2018-04-04T10:04:32.382Z,53.45
2018-04-04T10:06:58.339Z,53.23
2018-04-04T10:09:24.292Z,53.23
2018-04-04T10:11:50.233Z,53.25
2018-04-04T10:14:16.201Z,53.27
2018-04-04T10:16:42.154Z,53.32
2018-04-04T10:19:08.135Z,53.18
2018-04-04T10:21:34.078Z,53.18
2018-04-04T10:24:00.015Z,53.17
2018-04-04T10:26:25.955Z,53.26
2018-04-04T10:28:51.909Z,53.24
2018-04-04T10:31:17.845Z,53.16
2018-04-04T10:33:43.783Z,53.17
2018-04-04T10:36:09.722Z,53.23
2018-04-04T10:38:35.723Z,53.24
2018-04-04T10:41:01.623Z,53.27
2018-04-04T10:43:27.562Z,53.26
2018-04-04T10:45:53.545Z,53.41
2018-04-04T10:48:19.477Z,53.30
2018-04-04T10:50:45.468Z,53.49
2018-04-04T10:53:11.373Z,53.53
2018-04-04T10:55:37.318Z,53.42
2018-04-04T10:58:03.345Z,53.44
2018-04-04T11:00:29.302Z,53.41
2018-04-04T11:02:55.286Z,53.25
2018-04-04T11:05:21.234Z,53.35
2018-04-04T11:07:47.198Z,53.12
2018-04-04T11:10:13.173Z,53.64
2018-04-04T11:12:39.109Z,53.53
2018-04-04T11:15:05.169Z,53.39
2018-04-04T11:17:31.227Z,53.75
2018-04-04T11:19:57.125Z,53.70
2018-04-04T11:22:23.069Z,53.95
2018-04-04T11:24:49.173Z,53.70
2018-04-04T11:27:15.117Z,53.85
2018-04-04T11:29:41.057Z,54.02
2018-04-04T11:32:07.019Z,54.17
2018-04-04T11:34:33.087Z,54.16
2018-04-04T11:36:59.266Z,53.90
2018-04-04T11:39:25.362Z,54.15
2018-04-04T11:41:51.418Z,54.07
2018-04-04T11:44:17.463Z,54.08
2018-04-04T11:46:43.662Z,54.19
2018-04-04T11:49:09.786Z,54.14
2018-04-04T11:51:36.000Z,54.29
2018-04-04T11:54:02.317Z,54.20
2018-04-04T11:56:28.570Z,54.42
2018-04-04T11:58:54.718Z,54.60
2018-04-04T12:01:20.933Z,54.52
2018-04-04T12:03:47.095Z,54.57
2018-04-04T12:06:13.250Z,54.54
2018-04-04T12:08:39.474Z,54.76
2018-04-04T12:11:05.636Z,54.87
2018-04-04T12:13:31.802Z,55.07
2018-04-04T12:15:58.004Z,55.10
2018-04-04T12:18:24.252Z,55.16
2018-04-04T12:20:50.450Z,55.15
2018-04-04T12:23:16.637Z,55.34
2018-04-04T12:25:42.810Z,55.33
2018-04-04T12:28:09.012Z,55.30
2018-04-04T12:30:35.263Z,55.00
2018-04-04T12:33:01.466Z,55.03
2018-04-04T12:35:27.629Z,54.77
2018-04-04T12:37:53.779Z,54.68
2018-04-04T12:40:19.902Z,54.62
2018-04-04T12:42:46.085Z,54.56
2018-04-04T12:45:12.188Z,54.85
2018-04-04T12:47:38.346Z,55.01
2018-04-04T12:50:04.529Z,55.14
2018-04-04T12:52:30.747Z,55.01
2018-04-04T12:54:56.962Z,54.85
2018-04-04T12:57:23.112Z,54.85
2018-04-04T12:59:49.291Z,54.86
2018-04-04T13:02:15.476Z,54.94
2018-04-04T13:04:41.826Z,55.15
2018-04-04T13:07:07.944Z,55.04
2018-04-04T13:09:34.119Z,55.06
2018-04-04T13:12:00.302Z,55.08
2018-04-04T13:14:26.259Z,55.01
2018-04-04T13:16:52.317Z,54.97
2018-04-04T13:19:18.343Z,54.71
2018-04-04T13:21:44.377Z,54.53
2018-04-04T13:24:10.330Z,54.50
2018-04-04T13:26:36.315Z,54.50
2018-04-04T13:29:02.363Z,54.53
2018-04-04T13:31:28.378Z,54.45
2018-04-04T13:33:54.405Z,54.32
2018-04-04T13:36:20.434Z,54.18
2018-04-04T13:38:46.384Z,54.29
2018-04-04T13:41:12.404Z,54.33
2018-04-04T13:43:38.395Z,54.27
2018-04-04T13:46:04.359Z,54.20
2018-04-04T13:48:30.322Z,54.33
2018-04-04T13:50:56.321Z,54.28
2018-04-04T13:53:22.256Z,54.20
2018-04-04T13:55:48.207Z,54.40
2018-04-04T13:58:14.143Z,54.33
2018-04-04T14:00:40.085Z,54.46
2018-04-04T14:03:06.061Z,54.33
2018-04-04T14:05:32.033Z,54.18
2018-04-04T14:07:58.006Z,54.07
2018-04-04T14:10:23.942Z,54.14
2018-04-04T14:12:49.986Z,54.21
2018-04-04T14:15:15.913Z,54.16
2018-04-04T14:17:41.873Z,53.97
2018-04-04T14:20:07.827Z,54.24
2018-04-04T14:22:33.778Z,54.12
2018-04-04T14:24:59.727Z,54.30
2018-04-04T14:27:25.734Z,53.93
2018-04-04T14:29:51.684Z,53.86
2018-04-04T14:32:17.652Z,54.16
2018-04-04T14:34:43.587Z,53.80
2018-04-04T14:37:09.572Z,53.68
2018-04-04T14:39:35.516Z,53.81
2018-04-04T14:42:01.478Z,53.69
2018-04-04T14:44:27.439Z,53.79
2018-04-04T14:46:53.378Z,53.84
2018-04-04T14:49:19.326Z,53.75
2018-04-04T14:51:45.285Z,53.81
2018-04-04T14:54:11.230Z,53.68
2018-04-04T14:56:37.190Z,53.90
2018-04-04T14:59:03.137Z,53.86
2018-04-04T15:01:29.085Z,53.76
2018-04-04T15:03:55.045Z,53.65
2018-04-04T15:06:21.014Z,53.46
2018-04-04T15:08:47.031Z,53.53
2018-04-04T15:11:12.972Z,53.50
2018-04-04T15:13:38.959Z,53.55
2018-04-04T15:16:04.904Z,53.10
2018-04-04T15:18:30.853Z,53.36
2018-04-04T15:20:56.789Z,53.43
2018-04-04T15:23:22.765Z,53.37
2018-04-04T15:25:48.715Z,53.60
2018-04-04T15:28:14.674Z,53.51
2018-04-04T15:30:40.633Z,53.45
2018-04-04T15:33:06.644Z,53.56
2018-04-04T15:35:32.579Z,53.36
2018-04-04T15:37:58.512Z,53.30
2018-04-04T15:40:24.472Z,53.56
2018-04-04T15:42:50.504Z,53.75
2018-04-04T15:45:16.458Z,53.65
2018-04-04T15:47:42.405Z,53.61
2018-04-04T15:50:08.442Z,53.54
2018-04-04T15:52:34.374Z,53.52
2018-04-04T15:55:00.370Z,53.62
2018-04-04T15:57:26.328Z,53.76
2018-04-04T15:59:52.273Z,53.68
2018-04-04T16:02:18.229Z,53.54
2018-04-04T16:04:44.173Z,53.92
2018-04-04T16:07:10.141Z,53.75
2018-04-04T16:09:36.093Z,53.64
2018-04-04T16:12:02.044Z,53.73
2018-04-04T16:14:28.010Z,53.57
2018-04-04T16:16:53.961Z,53.50
2018-04-04T16:19:19.933Z,53.41
2018-04-04T16:21:45.889Z,53.62
2018-04-04T16:24:11.854Z,53.69
2018-04-04T16:26:37.858Z,53.81
2018-04-04T16:29:03.842Z,53.88
2018-04-04T16:31:29.784Z,53.70
2018-04-04T16:33:55.826Z,53.69
2018-04-04T16:36:21.776Z,53.94
2018-04-04T16:38:47.723Z,53.70
2018-04-04T16:41:13.737Z,53.92
2018-04-04T16:43:39.673Z,53.74
2018-04-04T16:46:05.671Z,53.54
2018-04-04T16:48:31.609Z,53.67
2018-04-04T16:50:57.612Z,53.57
2018-04-04T16:53:23.549Z,53.53
2018-04-04T16:55:49.500Z,53.60
2018-04-04T16:58:15.561Z,53.70
2018-04-04T17:00:41.524Z,53.56
2018-04-04T17:03:07.478Z,53.75
2018-04-04T17:05:33.439Z,53.72
2018-04-04T17:07:59.417Z,53.71
2018-04-04T17:10:25.354Z,53.68
2018-04-04T17:12:51.297Z,53.58
2018-04-04T17:15:17.250Z,53.85
2018-04-04T17:17:43.214Z,53.83
2018-04-04T17:20:09.180Z,53.88
2018-04-04T17:22:35.218Z,53.97
2018-04-04T17:25:01.194Z,53.77
2018-04-04T17:27:27.134Z,53.93
2018-04-04T17:29:53.110Z,53.87
2018-04-04T17:32:19.046Z,53.67
2018-04-04T17:34:45.038Z,53.65
2018-04-04T17:37:11.124Z,53.79
2018-04-04T17:39:37.084Z,53.72
2018-04-04T17:42:03.078Z,53.60
2018-04-04T17:44:29.012Z,53.48
2018-04-04T17:46:54.983Z,53.54
2018-04-04T17:49:20.926Z,53.80
2018-04-04T17:51:46.945Z,53.71
2018-04-04T17:54:13.045Z,53.79
2018-04-04T17:56:38.995Z,53.81
2018-04-04T17:59:04.947Z,53.76
2018-04-04T18:01:30.895Z,53.86
2018-04-04T18:03:56.864Z,53.86
2018-04-04T18:06:22.799Z,53.76
2018-04-04T18:08:48.765Z,53.93
2018-04-04T18:11:14.733Z,53.96
2018-04-04T18:13:40.694Z,53.82
2018-04-04T18:16:06.654Z,53.68
2018-04-04T18:18:32.607Z,53.78
2018-04-04T18:20:58.545Z,53.79
2018-04-04T18:23:24.544Z,53.53
2018-04-04T18:25:50.583Z,53.72
2018-04-04T18:28:16.495Z,53.76
2018-04-04T18:30:42.469Z,53.60
2018-04-04T18:33:08.421Z,53.52
2018-04-04T18:35:34.378Z,53.71
2018-04-04T18:38:00.334Z,53.56
2018-04-04T18:40:26.328Z,53.54
2018-04-04T18:42:52.346Z,53.67
2018-04-04T18:45:18.315Z,53.70
2018-04-04T18:47:44.253Z,53.67
2018-04-04T18:50:10.227Z,53.72
2018-04-04T18:52:36.189Z,53.76
2018-04-04T18:55:02.168Z,53.78
2018-04-04T18:57:28.098Z,53.82
2018-04-04T18:59:54.080Z,53.83
2018-04-04T19:02:20.041Z,53.73
2018-04-04T19:04:46.009Z,53.70
2018-04-04T19:07:11.991Z,53.76
2018-04-04T19:09:37.954Z,53.66
2018-04-04T19:12:03.928Z,53.63
2018-04-04T19:14:29.837Z,53.60
2018-04-04T19:16:55.789Z,53.50
2018-04-04T19:19:21.742Z,53.45
2018-04-04T19:21:47.722Z,53.56
2018-04-04T19:24:13.783Z,53.51
2018-04-04T19:26:39.743Z,53.53
2018-04-04T19:29:05.681Z,53.53
2018-04-04T19:31:31.642Z,53.61
2018-04-04T19:33:57.597Z,53.61
2018-04-04T19:36:23.599Z,53.61
2018-04-04T19:38:49.551Z,53.75
2018-04-04T19:41:15.595Z,53.72
2018-04-04T19:43:41.565Z,53.65
2018-04-04T19:46:07.640Z,53.62
2018-04-04T19:48:33.606Z,53.83
2018-04-04T19:50:59.570Z,53.63
2018-04-04T19:53:25.538Z,53.85
2018-04-04T19:55:51.526Z,53.67
2018-04-04T19:58:17.492Z,53.39
2018-04-04T20:00:43.438Z,53.59
2018-04-04T20:03:09.397Z,53.61
2018-04-04T20:05:35.412Z,53.66
2018-04-04T20:08:01.356Z,53.49
2018-04-04T20:10:27.325Z,53.50
2018-04-04T20:12:53.292Z,53.50
2018-04-04T20:15:19.250Z,53.38
2018-04-04T20:17:45.206Z,53.44
2018-04-04T20:20:11.177Z,53.37
2018-04-04T20:22:37.175Z,53.50
2018-04-04T20:25:03.144Z,53.42
2018-04-04T20:27:29.122Z,53.50
2018-04-04T20:29:55.085Z,53.44
2018-04-04T20:32:21.040Z,53.57
2018-04-04T20:34:47.013Z,53.64
2018-04-04T20:37:13.171Z,53.62
2018-04-04T20:39:39.309Z,53.72
2018-04-04T20:42:05.331Z,53.66
2018-04-04T20:44:31.282Z,53.50
2018-04-04T20:46:57.240Z,53.60
2018-04-04T20:49:23.302Z,53.38
2018-04-04T20:51:49.303Z,53.57
2018-04-04T20:54:15.344Z,53.46
2018-04-04T20:56:41.337Z,53.40
2018-04-04T20:59:07.294Z,53.24
2018-04-04T21:01:33.243Z,53.84
2018-04-04T21:03:59.195Z,53.53
2018-04-04T21:06:25.172Z,53.50
2018-04-04T21:08:51.167Z,53.51
2018-04-04T21:11:17.148Z,52.71
2018-04-04T21:13:43.140Z,52.85
2018-04-04T21:16:09.316Z,52.21
2018-04-04T21:18:35.311Z,52.61
2018-04-04T21:21:01.370Z,52.21
2018-04-04T21:23:27.504Z,52.06
2018-04-04T21:25:53.492Z,52.21
2018-04-04T21:28:19.552Z,51.78
2018-04-04T21:30:45.524Z,52.23
2018-04-04T21:33:11.504Z,51.93
2018-04-04T21:35:37.534Z,52.36
2018-04-04T21:38:03.497Z,52.36
2018-04-04T21:40:29.492Z,52.14
2018-04-04T21:42:55.516Z,52.53
2018-04-04T21:45:21.480Z,52.72
2018-04-04T21:47:47.433Z,52.68
2018-04-04T21:50:13.410Z,52.85
2018-04-04T21:52:39.410Z,52.53
2018-04-04T21:55:05.361Z,52.78
2018-04-04T21:57:31.313Z,52.94
2018-04-04T21:59:57.285Z,53.08
2018-04-04T22:02:23.236Z,53.08
2018-04-04T22:04:49.180Z,53.27
2018-04-04T22:07:15.291Z,53.35
2018-04-04T22:09:41.248Z,53.56
2018-04-04T22:12:07.214Z,53.51
2018-04-04T22:14:33.180Z,53.31
2018-04-04T22:16:59.148Z,53.48
2018-04-04T22:19:25.116Z,53.73
2018-04-04T22:21:51.063Z,53.41
2018-04-04T22:24:17.020Z,53.72
2018-04-04T22:26:42.965Z,53.51
2018-04-04T22:29:08.916Z,53.28
2018-04-04T22:31:34.883Z,53.50
2018-04-04T22:34:00.862Z,53.38
2018-04-04T22:36:26.826Z,53.23
2018-04-04T22:38:52.793Z,53.17
2018-04-04T22:41:18.781Z,53.57
2018-04-04T22:43:44.801Z,53.37
2018-04-04T22:46:10.799Z,53.33
2018-04-04T22:48:36.760Z,53.06
2018-04-04T22:51:02.745Z,53.22
2018-04-04T22:53:28.703Z,53.55
2018-04-04T22:55:54.673Z,53.34
2018-04-04T22:58:20.625Z,53.45
2018-04-04T23:00:46.581Z,52.88
2018-04-04T23:03:12.559Z,53.31
2018-04-04T23:05:38.521Z,53.37
2018-04-04T23:08:04.502Z,53.17
2018-04-04T23:10:30.464Z,53.71
2018-04-04T23:12:56.452Z,53.45
2018-04-04T23:15:22.411Z,53.20
2018-04-04T23:17:48.413Z,53.14
2018-04-04T23:20:14.361Z,53.45
2018-04-04T23:22:40.345Z,53.37
2018-04-04T23:25:06.316Z,53.17
2018-04-04T23:27:32.269Z,52.96
2018-04-04T23:29:58.229Z,53.11
2018-04-04T23:32:24.192Z,52.98
2018-04-04T23:34:50.173Z,53.17
2018-04-04T23:37:16.124Z,53.21
2018-04-04T23:39:42.101Z,53.02
2018-04-04T23:42:08.053Z,52.74
2018-04-04T23:44:34.025Z,53.25
2018-04-04T23:46:59.972Z,53.24
2018-04-04T23:49:25.932Z,52.98
2018-04-04T23:51:51.885Z,53.49
2018-04-04T23:54:17.920Z,53.07
2018-04-04T23:56:43.879Z,53.34
2018-04-04T23:59:09.842Z,53.07
